Logan, UT

9:25 PM MDT on September 20, 2014 (GMT -0600)
Logan 15th Ward | Change Station
CLOSE
Current Station
Personal Weather Station
Location: Logan, UT
Elevation: 4524 ft
Nearby Weather Stations

Elev 4524 ft 41.74 °N, 111.84 °W | Updated 11 minutes ago

Clear
Clear
57.4 °F
Feels Like 57.4 °F
N
0.0
Wind Variable Wind from North
Gusts 0.0 mph

Today
High -- | Low -- °F
--% Chance of Precip.
Yesterday
High -- | Low -- °F
Precip. -- in
7:12 AM 7:27 PM
Waning Crescent, 9% visible
Pressure 29.99 in
Visibility 10.0 miles
Clouds Clear
Dew Point 38 °F
Humidity 48%
Rainfall 0.00 in
Snow Depth 0 in , 0 in , 0 in
UV 0 out of 12
Pollen 5.30 out of 12
Ozone Good
PM2.5 Good
Flu Activity Not available.
METAR KLGU 210151Z AUTO 20005KT 10SM CLR 21/12 A3009 RMK AO2 SLP156 T02060122

More Conditions Fewer Conditions

Pressure 29.99 in
Visibility 10.0 miles
Clouds Clear
Dew Point 38 °F
Humidity 48%
Rainfall 0.00 in
Snow Depth 0 in , 0 in , 0 in
UV 0 out of 12
Pollen 5.30 out of 12
Ozone Good
PM2.5 Good
Flu Activity Not available.
METAR KLGU 210151Z AUTO 20005KT 10SM CLR 21/12 A3009 RMK AO2 SLP156 T02060122

More Conditions Fewer Conditions

10-Day Weather Forecast

Almanac

Astronomy

Sep. 20, 2014 Rise Set
Actual Time 7:12 AM MDT 7:27 PM MDT
Civil Twilight 6:44 AM MDT 7:55 PM MDT
Nautical Twilight 6:12 AM MDT 8:28 PM MDT
Astronomical Twilight 5:38 AM MDT 9:01 PM MDT
Moon 3:53 AM MDT (9/20) 5:35 PM MDT (9/20)
Length of Visible Light 13h 10m
Length of Day
12h 15m
Tomorrow will be 2m 47s shorter.
Waning Crescent, 9% of the Moon is Illuminated
Today
Waning Crescent
Sep 24
New
Oct 1
First Quarter
Oct 8
Full
Oct 15
Last Quarter

Today's Extremes

State Highs State Lows

Community

WunderPhotos

Upload Photos

1,755,070 photos uploaded!

WunderBlogs® & News

Nearby

Air Quality

  Air Quality AQ Index Pollutant
Yesterday Good
OZONE
Yesterday Good
PM2.5
Current Good
PM2.5
Current Good
OZONE

Snow Depth

Station Depth Elevation
Gooseberry R.S. 0 in 7920 ft
Merchant Valley 0 in 8750 ft
Dry Fork 0 in 7160 ft
Clayton Springs 0 in 10000 ft
Cascade Mountain 0 in 7768 ft

Earthquake Activity

City Distance Mag. Time & Date
No recent earthquake activity has been reported nearby.
Minimum magnitude displayed is 2.5.

Coastal Water Temperatures

Place Temperature
No Stations Reporting

Nearby Weather Stations